sensor_id;sensor_type;location;lat;lon;timestamp;P1;durP1;ratioP1;P2;durP2;ratioP2
36441;SDS011;64346;50.820;16.274;2023-09-18T00:01:02;15.55;;;10.38;;
36441;SDS011;64346;50.820;16.274;2023-09-18T00:03:41;15.57;;;9.45;;
36441;SDS011;64346;50.820;16.274;2023-09-18T00:06:08;14.65;;;8.95;;
36441;SDS011;64346;50.820;16.274;2023-09-18T00:08:38;15.23;;;8.90;;
36441;SDS011;64346;50.820;16.274;2023-09-18T00:11:06;13.50;;;9.07;;
36441;SDS011;64346;50.820;16.274;2023-09-18T00:13:33;12.65;;;8.10;;
36441;SDS011;64346;50.820;16.274;2023-09-18T00:16:01;14.02;;;9.18;;
36441;SDS011;64346;50.820;16.274;2023-09-18T00:18:28;15.73;;;9.38;;
36441;SDS011;64346;50.820;16.274;2023-09-18T00:20:58;14.85;;;9.82;;
36441;SDS011;64346;50.820;16.274;2023-09-18T00:23:26;18.90;;;13.90;;
36441;SDS011;64346;50.820;16.274;2023-09-18T00:25:55;24.05;;;13.75;;
36441;SDS011;64346;50.820;16.274;2023-09-18T00:28:23;23.20;;;15.50;;
36441;SDS011;64346;50.820;16.274;2023-09-18T00:30:50;24.50;;;16.60;;
36441;SDS011;64346;50.820;16.274;2023-09-18T00:33:17;26.95;;;16.65;;
36441;SDS011;64346;50.820;16.274;2023-09-18T00:35:45;24.30;;;16.58;;
36441;SDS011;64346;50.820;16.274;2023-09-18T00:38:16;23.75;;;16.83;;
36441;SDS011;64346;50.820;16.274;2023-09-18T00:40:46;23.40;;;16.50;;
36441;SDS011;64346;50.820;16.274;2023-09-18T00:43:14;28.75;;;17.42;;
36441;SDS011;64346;50.820;16.274;2023-09-18T00:45:45;26.75;;;17.85;;
36441;SDS011;64346;50.820;16.274;2023-09-18T00:48:14;38.50;;;22.17;;
36441;SDS011;64346;50.820;16.274;2023-09-18T00:50:46;32.90;;;20.67;;
36441;SDS011;64346;50.820;16.274;2023-09-18T00:53:21;29.45;;;19.27;;
36441;SDS011;64346;50.820;16.274;2023-09-18T00:55:55;29.38;;;19.00;;
36441;SDS011;64346;50.820;16.274;2023-09-18T00:58:26;28.63;;;16.87;;
36441;SDS011;64346;50.820;16.274;2023-09-18T01:00:54;22.67;;;14.10;;
36441;SDS011;64346;50.820;16.274;2023-09-18T01:03:25;18.80;;;12.18;;
36441;SDS011;64346;50.820;16.274;2023-09-18T01:05:53;16.48;;;11.32;;
36441;SDS011;64346;50.820;16.274;2023-09-18T01:08:21;15.27;;;10.65;;
36441;SDS011;64346;50.820;16.274;2023-09-18T01:10:56;14.43;;;9.75;;
36441;SDS011;64346;50.820;16.274;2023-09-18T01:16:27;13.43;;;9.35;;
36441;SDS011;64346;50.820;16.274;2023-09-18T01:18:59;13.65;;;9.57;;
36441;SDS011;64346;50.820;16.274;2023-09-18T01:21:30;13.40;;;9.48;;
36441;SDS011;64346;50.820;16.274;2023-09-18T01:23:58;13.05;;;9.18;;
36441;SDS011;64346;50.820;16.274;2023-09-18T01:26:25;15.00;;;9.52;;
36441;SDS011;64346;50.820;16.274;2023-09-18T01:28:58;13.68;;;10.48;;
36441;SDS011;64346;50.820;16.274;2023-09-18T01:31:27;16.00;;;10.98;;
36441;SDS011;64346;50.820;16.274;2023-09-18T01:33:57;16.25;;;11.30;;
36441;SDS011;64346;50.820;16.274;2023-09-18T01:36:25;17.50;;;11.52;;
36441;SDS011;64346;50.820;16.274;2023-09-18T01:38:52;14.80;;;10.32;;
36441;SDS011;64346;50.820;16.274;2023-09-18T01:41:20;14.98;;;10.68;;
36441;SDS011;64346;50.820;16.274;2023-09-18T01:43:51;17.25;;;10.80;;
36441;SDS011;64346;50.820;16.274;2023-09-18T01:46:18;18.08;;;11.50;;
36441;SDS011;64346;50.820;16.274;2023-09-18T01:48:46;18.40;;;11.60;;
36441;SDS011;64346;50.820;16.274;2023-09-18T01:51:16;16.20;;;10.77;;
36441;SDS011;64346;50.820;16.274;2023-09-18T01:53:46;15.88;;;10.38;;
36441;SDS011;64346;50.820;16.274;2023-09-18T01:56:17;15.30;;;10.73;;
36441;SDS011;64346;50.820;16.274;2023-09-18T01:58:44;16.15;;;11.13;;
36441;SDS011;64346;50.820;16.274;2023-09-18T02:01:14;18.83;;;12.02;;
36441;SDS011;64346;50.820;16.274;2023-09-18T02:03:42;17.60;;;12.30;;
36441;SDS011;64346;50.820;16.274;2023-09-18T02:06:29;21.77;;;13.15;;
36441;SDS011;64346;50.820;16.274;2023-09-18T02:09:00;22.00;;;13.52;;
36441;SDS011;64346;50.820;16.274;2023-09-18T02:11:28;19.25;;;13.38;;
36441;SDS011;64346;50.820;16.274;2023-09-18T02:13:56;15.48;;;11.20;;
36441;SDS011;64346;50.820;16.274;2023-09-18T02:16:23;17.50;;;12.10;;
36441;SDS011;64346;50.820;16.274;2023-09-18T02:18:51;16.25;;;10.95;;
36441;SDS011;64346;50.820;16.274;2023-09-18T02:21:20;17.83;;;10.73;;
36441;SDS011;64346;50.820;16.274;2023-09-18T02:23:52;16.23;;;10.85;;
36441;SDS011;64346;50.820;16.274;2023-09-18T02:26:20;16.42;;;10.80;;
36441;SDS011;64346;50.820;16.274;2023-09-18T02:28:51;16.27;;;11.77;;
36441;SDS011;64346;50.820;16.274;2023-09-18T02:31:19;16.05;;;10.73;;
36441;SDS011;64346;50.820;16.274;2023-09-18T02:33:47;14.32;;;10.18;;
36441;SDS011;64346;50.820;16.274;2023-09-18T02:36:16;13.25;;;9.20;;
36441;SDS011;64346;50.820;16.274;2023-09-18T02:38:46;14.60;;;9.45;;
36441;SDS011;64346;50.820;16.274;2023-09-18T02:41:14;13.45;;;8.82;;
36441;SDS011;64346;50.820;16.274;2023-09-18T02:43:44;13.25;;;9.60;;
36441;SDS011;64346;50.820;16.274;2023-09-18T02:46:11;14.05;;;9.02;;
36441;SDS011;64346;50.820;16.274;2023-09-18T02:48:38;13.73;;;9.23;;
36441;SDS011;64346;50.820;16.274;2023-09-18T02:51:05;12.13;;;9.00;;
36441;SDS011;64346;50.820;16.274;2023-09-18T02:53:33;14.68;;;9.65;;
36441;SDS011;64346;50.820;16.274;2023-09-18T02:56:00;14.18;;;9.82;;
36441;SDS011;64346;50.820;16.274;2023-09-18T02:58:28;18.05;;;9.90;;
36441;SDS011;64346;50.820;16.274;2023-09-18T03:00:57;19.95;;;11.35;;
36441;SDS011;64346;50.820;16.274;2023-09-18T03:03:25;14.98;;;10.32;;
36441;SDS011;64346;50.820;16.274;2023-09-18T03:05:59;15.30;;;10.40;;
36441;SDS011;64346;50.820;16.274;2023-09-18T03:08:31;15.43;;;10.07;;
36441;SDS011;64346;50.820;16.274;2023-09-18T03:11:01;13.35;;;8.93;;
36441;SDS011;64346;50.820;16.274;2023-09-18T03:13:29;12.05;;;9.77;;
36441;SDS011;64346;50.820;16.274;2023-09-18T03:15:59;15.73;;;9.43;;
36441;SDS011;64346;50.820;16.274;2023-09-18T03:18:28;12.45;;;8.57;;
36441;SDS011;64346;50.820;16.274;2023-09-18T03:20:56;14.35;;;10.15;;
36441;SDS011;64346;50.820;16.274;2023-09-18T03:23:25;14.63;;;9.65;;
36441;SDS011;64346;50.820;16.274;2023-09-18T03:25:52;13.32;;;9.88;;
36441;SDS011;64346;50.820;16.274;2023-09-18T03:28:25;13.38;;;9.98;;
36441;SDS011;64346;50.820;16.274;2023-09-18T03:30:52;12.65;;;8.82;;
36441;SDS011;64346;50.820;16.274;2023-09-18T03:33:22;13.00;;;9.15;;
36441;SDS011;64346;50.820;16.274;2023-09-18T03:35:49;12.27;;;9.30;;
36441;SDS011;64346;50.820;16.274;2023-09-18T03:38:20;13.77;;;9.65;;
36441;SDS011;64346;50.820;16.274;2023-09-18T03:40:47;13.50;;;9.52;;
36441;SDS011;64346;50.820;16.274;2023-09-18T03:43:14;15.27;;;10.00;;
36441;SDS011;64346;50.820;16.274;2023-09-18T03:45:41;15.80;;;11.57;;
36441;SDS011;64346;50.820;16.274;2023-09-18T03:48:10;14.73;;;10.00;;
36441;SDS011;64346;50.820;16.274;2023-09-18T03:50:38;17.05;;;10.52;;
36441;SDS011;64346;50.820;16.274;2023-09-18T03:53:06;16.13;;;10.77;;
36441;SDS011;64346;50.820;16.274;2023-09-18T03:55:34;16.52;;;10.88;;
36441;SDS011;64346;50.820;16.274;2023-09-18T03:58:04;14.68;;;10.10;;
36441;SDS011;64346;50.820;16.274;2023-09-18T04:00:31;16.17;;;9.95;;
36441;SDS011;64346;50.820;16.274;2023-09-18T04:02:58;15.35;;;10.50;;
36441;SDS011;64346;50.820;16.274;2023-09-18T04:05:26;16.27;;;9.85;;
36441;SDS011;64346;50.820;16.274;2023-09-18T04:07:56;12.57;;;9.05;;
36441;SDS011;64346;50.820;16.274;2023-09-18T04:10:23;15.40;;;9.02;;
36441;SDS011;64346;50.820;16.274;2023-09-18T04:12:51;14.70;;;9.15;;
36441;SDS011;64346;50.820;16.274;2023-09-18T04:15:19;15.65;;;8.85;;
36441;SDS011;64346;50.820;16.274;2023-09-18T04:17:47;14.25;;;8.88;;
36441;SDS011;64346;50.820;16.274;2023-09-18T04:20:15;12.70;;;8.85;;
36441;SDS011;64346;50.820;16.274;2023-09-18T04:22:45;12.30;;;8.18;;
36441;SDS011;64346;50.820;16.274;2023-09-18T04:25:13;12.15;;;8.43;;
36441;SDS011;64346;50.820;16.274;2023-09-18T04:27:41;12.60;;;8.25;;
36441;SDS011;64346;50.820;16.274;2023-09-18T04:30:08;13.25;;;9.02;;
36441;SDS011;64346;50.820;16.274;2023-09-18T04:32:36;12.18;;;8.43;;
36441;SDS011;64346;50.820;16.274;2023-09-18T04:35:05;11.85;;;8.88;;
36441;SDS011;64346;50.820;16.274;2023-09-18T04:37:36;13.25;;;9.15;;
36441;SDS011;64346;50.820;16.274;2023-09-18T04:40:07;13.95;;;8.95;;
36441;SDS011;64346;50.820;16.274;2023-09-18T04:42:35;14.98;;;9.60;;
36441;SDS011;64346;50.820;16.274;2023-09-18T04:45:02;12.90;;;9.32;;
36441;SDS011;64346;50.820;16.274;2023-09-18T04:47:30;12.98;;;9.05;;
36441;SDS011;64346;50.820;16.274;2023-09-18T04:50:00;14.85;;;9.73;;
36441;SDS011;64346;50.820;16.274;2023-09-18T04:52:28;15.02;;;9.50;;
36441;SDS011;64346;50.820;16.274;2023-09-18T04:54:55;13.35;;;9.38;;
36441;SDS011;64346;50.820;16.274;2023-09-18T04:57:22;14.02;;;8.75;;
36441;SDS011;64346;50.820;16.274;2023-09-18T04:59:49;12.00;;;8.88;;
36441;SDS011;64346;50.820;16.274;2023-09-18T05:02:31;13.88;;;8.63;;
36441;SDS011;64346;50.820;16.274;2023-09-18T05:04:58;12.57;;;8.13;;
36441;SDS011;64346;50.820;16.274;2023-09-18T05:07:26;12.13;;;8.30;;
36441;SDS011;64346;50.820;16.274;2023-09-18T05:09:56;13.32;;;8.35;;
36441;SDS011;64346;50.820;16.274;2023-09-18T05:12:25;12.63;;;7.10;;
36441;SDS011;64346;50.820;16.274;2023-09-18T05:14:53;11.93;;;7.88;;
36441;SDS011;64346;50.820;16.274;2023-09-18T05:17:20;11.88;;;7.72;;
36441;SDS011;64346;50.820;16.274;2023-09-18T05:19:47;11.98;;;7.55;;
36441;SDS011;64346;50.820;16.274;2023-09-18T05:22:15;12.70;;;7.60;;
36441;SDS011;64346;50.820;16.274;2023-09-18T05:24:42;12.18;;;8.02;;
36441;SDS011;64346;50.820;16.274;2023-09-18T05:27:11;14.02;;;9.48;;
36441;SDS011;64346;50.820;16.274;2023-09-18T05:29:41;14.25;;;9.25;;
36441;SDS011;64346;50.820;16.274;2023-09-18T05:32:11;14.75;;;9.15;;
36441;SDS011;64346;50.820;16.274;2023-09-18T05:34:38;15.32;;;8.07;;
36441;SDS011;64346;50.820;16.274;2023-09-18T05:37:06;13.75;;;9.85;;
36441;SDS011;64346;50.820;16.274;2023-09-18T05:39:33;12.57;;;8.10;;
36441;SDS011;64346;50.820;16.274;2023-09-18T05:42:03;11.00;;;7.78;;
36441;SDS011;64346;50.820;16.274;2023-09-18T05:44:30;11.43;;;7.78;;
36441;SDS011;64346;50.820;16.274;2023-09-18T05:46:57;10.90;;;7.15;;
36441;SDS011;64346;50.820;16.274;2023-09-18T05:49:25;11.82;;;7.43;;
36441;SDS011;64346;50.820;16.274;2023-09-18T05:51:52;12.20;;;8.05;;
36441;SDS011;64346;50.820;16.274;2023-09-18T05:54:19;12.30;;;7.63;;
36441;SDS011;64346;50.820;16.274;2023-09-18T05:56:47;11.80;;;7.20;;
36441;SDS011;64346;50.820;16.274;2023-09-18T05:59:14;11.10;;;6.85;;
36441;SDS011;64346;50.820;16.274;2023-09-18T06:01:41;11.52;;;6.65;;
36441;SDS011;64346;50.820;16.274;2023-09-18T06:04:08;10.38;;;7.10;;
36441;SDS011;64346;50.820;16.274;2023-09-18T06:06:36;13.13;;;7.18;;
36441;SDS011;64346;50.820;16.274;2023-09-18T06:09:03;12.20;;;8.02;;
36441;SDS011;64346;50.820;16.274;2023-09-18T06:11:30;21.90;;;18.52;;
36441;SDS011;64346;50.820;16.274;2023-09-18T06:14:03;13.00;;;7.53;;
36441;SDS011;64346;50.820;16.274;2023-09-18T06:16:30;9.80;;;6.60;;
36441;SDS011;64346;50.820;16.274;2023-09-18T06:18:57;10.55;;;7.15;;
36441;SDS011;64346;50.820;16.274;2023-09-18T06:21:25;11.18;;;7.10;;
36441;SDS011;64346;50.820;16.274;2023-09-18T06:23:54;10.05;;;7.60;;
36441;SDS011;64346;50.820;16.274;2023-09-18T06:26:22;13.55;;;7.97;;
36441;SDS011;64346;50.820;16.274;2023-09-18T06:28:49;12.77;;;7.72;;
36441;SDS011;64346;50.820;16.274;2023-09-18T06:31:22;12.65;;;8.23;;
36441;SDS011;64346;50.820;16.274;2023-09-18T06:33:50;12.70;;;8.10;;
36441;SDS011;64346;50.820;16.274;2023-09-18T06:36:20;10.93;;;7.47;;
36441;SDS011;64346;50.820;16.274;2023-09-18T06:38:49;13.30;;;7.53;;
36441;SDS011;64346;50.820;16.274;2023-09-18T06:41:17;11.52;;;7.45;;
36441;SDS011;64346;50.820;16.274;2023-09-18T06:43:46;9.50;;;6.80;;
36441;SDS011;64346;50.820;16.274;2023-09-18T06:46:13;10.52;;;6.82;;
36441;SDS011;64346;50.820;16.274;2023-09-18T06:48:40;12.10;;;8.27;;
36441;SDS011;64346;50.820;16.274;2023-09-18T06:51:08;9.80;;;7.25;;
36441;SDS011;64346;50.820;16.274;2023-09-18T06:53:35;10.65;;;6.38;;
36441;SDS011;64346;50.820;16.274;2023-09-18T06:56:02;9.43;;;6.47;;
36441;SDS011;64346;50.820;16.274;2023-09-18T06:58:32;13.27;;;7.93;;
36441;SDS011;64346;50.820;16.274;2023-09-18T07:01:00;13.30;;;8.45;;
36441;SDS011;64346;50.820;16.274;2023-09-18T07:03:27;12.88;;;8.57;;
36441;SDS011;64346;50.820;16.274;2023-09-18T07:05:55;13.20;;;8.32;;
36441;SDS011;64346;50.820;16.274;2023-09-18T07:08:22;12.30;;;7.95;;
36441;SDS011;64346;50.820;16.274;2023-09-18T07:10:50;11.13;;;7.57;;
36441;SDS011;64346;50.820;16.274;2023-09-18T07:13:17;10.57;;;7.15;;
36441;SDS011;64346;50.820;16.274;2023-09-18T07:15:45;15.60;;;10.52;;
36441;SDS011;64346;50.820;16.274;2023-09-18T07:18:13;12.25;;;7.45;;
36441;SDS011;64346;50.820;16.274;2023-09-18T07:20:41;11.85;;;7.35;;
36441;SDS011;64346;50.820;16.274;2023-09-18T07:23:08;11.02;;;7.68;;
36441;SDS011;64346;50.820;16.274;2023-09-18T07:25:35;10.55;;;7.40;;
36441;SDS011;64346;50.820;16.274;2023-09-18T07:28:10;9.50;;;6.80;;
36441;SDS011;64346;50.820;16.274;2023-09-18T07:30:40;9.23;;;6.38;;
36441;SDS011;64346;50.820;16.274;2023-09-18T07:33:07;9.90;;;6.90;;
36441;SDS011;64346;50.820;16.274;2023-09-18T07:35:35;13.38;;;7.65;;
36441;SDS011;64346;50.820;16.274;2023-09-18T07:38:04;11.38;;;7.22;;
36441;SDS011;64346;50.820;16.274;2023-09-18T07:40:32;10.07;;;6.60;;
36441;SDS011;64346;50.820;16.274;2023-09-18T07:42:59;10.95;;;6.70;;
36441;SDS011;64346;50.820;16.274;2023-09-18T07:45:26;10.07;;;6.35;;
36441;SDS011;64346;50.820;16.274;2023-09-18T07:47:56;9.05;;;5.85;;
36441;SDS011;64346;50.820;16.274;2023-09-18T07:50:23;11.57;;;7.00;;
36441;SDS011;64346;50.820;16.274;2023-09-18T07:52:51;12.77;;;6.65;;
36441;SDS011;64346;50.820;16.274;2023-09-18T07:55:18;9.43;;;6.60;;
36441;SDS011;64346;50.820;16.274;2023-09-18T07:57:48;10.18;;;6.22;;
36441;SDS011;64346;50.820;16.274;2023-09-18T08:00:15;10.10;;;6.05;;
36441;SDS011;64346;50.820;16.274;2023-09-18T08:02:48;10.57;;;6.13;;
36441;SDS011;64346;50.820;16.274;2023-09-18T08:05:17;8.00;;;5.60;;
36441;SDS011;64346;50.820;16.274;2023-09-18T08:07:44;9.80;;;6.32;;
36441;SDS011;64346;50.820;16.274;2023-09-18T08:10:11;11.20;;;6.32;;
36441;SDS011;64346;50.820;16.274;2023-09-18T08:12:41;9.30;;;5.75;;
36441;SDS011;64346;50.820;16.274;2023-09-18T08:15:11;8.43;;;5.68;;
36441;SDS011;64346;50.820;16.274;2023-09-18T08:17:38;8.73;;;5.40;;
36441;SDS011;64346;50.820;16.274;2023-09-18T08:20:06;9.52;;;6.15;;
36441;SDS011;64346;50.820;16.274;2023-09-18T08:22:33;8.50;;;5.53;;
36441;SDS011;64346;50.820;16.274;2023-09-18T08:25:01;7.95;;;5.55;;
36441;SDS011;64346;50.820;16.274;2023-09-18T08:27:28;8.80;;;5.60;;
36441;SDS011;64346;50.820;16.274;2023-09-18T08:29:58;7.32;;;4.93;;
36441;SDS011;64346;50.820;16.274;2023-09-18T08:32:25;9.75;;;5.80;;
36441;SDS011;64346;50.820;16.274;2023-09-18T08:34:53;7.45;;;5.35;;
36441;SDS011;64346;50.820;16.274;2023-09-18T08:37:28;8.52;;;5.15;;
36441;SDS011;64346;50.820;16.274;2023-09-18T08:39:58;9.57;;;5.47;;
36441;SDS011;64346;50.820;16.274;2023-09-18T08:42:31;8.68;;;5.47;;
36441;SDS011;64346;50.820;16.274;2023-09-18T08:45:02;9.38;;;5.70;;
36441;SDS011;64346;50.820;16.274;2023-09-18T08:47:32;8.63;;;5.90;;
36441;SDS011;64346;50.820;16.274;2023-09-18T08:49:59;10.73;;;5.70;;
36441;SDS011;64346;50.820;16.274;2023-09-18T08:52:28;9.65;;;5.40;;
36441;SDS011;64346;50.820;16.274;2023-09-18T08:54:57;9.75;;;5.15;;
36441;SDS011;64346;50.820;16.274;2023-09-18T08:57:25;7.30;;;5.15;;
36441;SDS011;64346;50.820;16.274;2023-09-18T08:59:54;9.25;;;4.82;;
36441;SDS011;64346;50.820;16.274;2023-09-18T09:02:25;10.20;;;5.40;;
36441;SDS011;64346;50.820;16.274;2023-09-18T09:04:55;9.40;;;5.68;;
36441;SDS011;64346;50.820;16.274;2023-09-18T09:07:22;8.00;;;5.35;;
36441;SDS011;64346;50.820;16.274;2023-09-18T09:09:50;7.70;;;5.55;;
36441;SDS011;64346;50.820;16.274;2023-09-18T09:12:45;8.35;;;5.28;;
36441;SDS011;64346;50.820;16.274;2023-09-18T09:15:16;9.48;;;5.50;;
36441;SDS011;64346;50.820;16.274;2023-09-18T09:17:44;10.07;;;5.50;;
36441;SDS011;64346;50.820;16.274;2023-09-18T09:20:14;9.43;;;5.53;;
36441;SDS011;64346;50.820;16.274;2023-09-18T09:22:42;7.47;;;4.78;;
36441;SDS011;64346;50.820;16.274;2023-09-18T09:27:49;9.25;;;5.07;;
36441;SDS011;64346;50.820;16.274;2023-09-18T09:30:23;9.45;;;5.13;;
36441;SDS011;64346;50.820;16.274;2023-09-18T09:32:52;8.40;;;5.60;;
36441;SDS011;64346;50.820;16.274;2023-09-18T09:35:22;14.98;;;5.32;;
36441;SDS011;64346;50.820;16.274;2023-09-18T09:37:51;6.45;;;4.60;;
36441;SDS011;64346;50.820;16.274;2023-09-18T09:40:20;7.95;;;5.03;;
36441;SDS011;64346;50.820;16.274;2023-09-18T09:42:50;8.85;;;5.30;;
36441;SDS011;64346;50.820;16.274;2023-09-18T09:45:19;10.07;;;5.60;;
36441;SDS011;64346;50.820;16.274;2023-09-18T09:47:46;8.68;;;5.55;;
36441;SDS011;64346;50.820;16.274;2023-09-18T09:50:14;8.43;;;5.35;;
36441;SDS011;64346;50.820;16.274;2023-09-18T09:52:46;9.27;;;5.90;;
36441;SDS011;64346;50.820;16.274;2023-09-18T09:55:18;10.93;;;5.38;;
36441;SDS011;64346;50.820;16.274;2023-09-18T09:57:49;8.48;;;5.47;;
36441;SDS011;64346;50.820;16.274;2023-09-18T10:00:19;10.32;;;6.00;;
36441;SDS011;64346;50.820;16.274;2023-09-18T10:02:46;9.40;;;5.80;;
36441;SDS011;64346;50.820;16.274;2023-09-18T10:05:14;9.10;;;5.80;;
36441;SDS011;64346;50.820;16.274;2023-09-18T10:07:45;11.30;;;5.60;;
36441;SDS011;64346;50.820;16.274;2023-09-18T10:10:13;10.75;;;5.75;;
36441;SDS011;64346;50.820;16.274;2023-09-18T10:12:40;9.90;;;6.30;;
36441;SDS011;64346;50.820;16.274;2023-09-18T10:15:09;9.30;;;5.95;;
36441;SDS011;64346;50.820;16.274;2023-09-18T10:17:42;10.48;;;6.03;;
36441;SDS011;64346;50.820;16.274;2023-09-18T10:20:12;10.07;;;5.90;;
36441;SDS011;64346;50.820;16.274;2023-09-18T10:22:44;10.85;;;6.35;;
36441;SDS011;64346;50.820;16.274;2023-09-18T10:25:28;10.38;;;6.13;;
36441;SDS011;64346;50.820;16.274;2023-09-18T10:27:56;11.25;;;6.35;;
36441;SDS011;64346;50.820;16.274;2023-09-18T10:30:25;10.23;;;6.53;;
36441;SDS011;64346;50.820;16.274;2023-09-18T10:32:54;9.73;;;6.38;;
36441;SDS011;64346;50.820;16.274;2023-09-18T10:35:23;11.43;;;6.82;;
36441;SDS011;64346;50.820;16.274;2023-09-18T10:37:53;13.00;;;7.30;;
36441;SDS011;64346;50.820;16.274;2023-09-18T10:40:21;10.70;;;6.47;;
36441;SDS011;64346;50.820;16.274;2023-09-18T10:42:48;10.70;;;6.78;;
36441;SDS011;64346;50.820;16.274;2023-09-18T10:45:21;11.93;;;6.18;;
36441;SDS011;64346;50.820;16.274;2023-09-18T10:47:48;10.77;;;6.25;;
36441;SDS011;64346;50.820;16.274;2023-09-18T10:50:26;10.63;;;6.32;;
36441;SDS011;64346;50.820;16.274;2023-09-18T10:52:54;9.85;;;6.10;;
36441;SDS011;64346;50.820;16.274;2023-09-18T10:55:26;10.35;;;6.53;;
36441;SDS011;64346;50.820;16.274;2023-09-18T10:57:55;11.27;;;6.35;;
36441;SDS011;64346;50.820;16.274;2023-09-18T11:00:30;11.93;;;5.90;;
36441;SDS011;64346;50.820;16.274;2023-09-18T11:05:40;10.52;;;6.40;;
36441;SDS011;64346;50.820;16.274;2023-09-18T11:08:27;9.70;;;5.95;;
36441;SDS011;64346;50.820;16.274;2023-09-18T11:10:55;13.52;;;7.18;;
36441;SDS011;64346;50.820;16.274;2023-09-18T11:13:31;12.10;;;6.32;;
36441;SDS011;64346;50.820;16.274;2023-09-18T11:16:13;10.05;;;6.03;;
36441;SDS011;64346;50.820;16.274;2023-09-18T11:18:40;11.38;;;6.32;;
36441;SDS011;64346;50.820;16.274;2023-09-18T11:21:12;10.47;;;6.43;;
36441;SDS011;64346;50.820;16.274;2023-09-18T11:23:42;11.75;;;7.43;;
36441;SDS011;64346;50.820;16.274;2023-09-18T11:26:11;13.07;;;6.75;;
36441;SDS011;64346;50.820;16.274;2023-09-18T11:28:41;11.63;;;6.70;;
36441;SDS011;64346;50.820;16.274;2023-09-18T11:31:09;14.73;;;7.20;;
36441;SDS011;64346;50.820;16.274;2023-09-18T11:33:39;13.10;;;6.55;;
36441;SDS011;64346;50.820;16.274;2023-09-18T11:38:51;12.70;;;7.82;;
36441;SDS011;64346;50.820;16.274;2023-09-18T11:41:29;14.45;;;7.00;;
36441;SDS011;64346;50.820;16.274;2023-09-18T11:46:41;12.07;;;7.50;;
36441;SDS011;64346;50.820;16.274;2023-09-18T11:49:14;12.27;;;7.60;;
36441;SDS011;64346;50.820;16.274;2023-09-18T11:51:46;11.60;;;7.10;;
36441;SDS011;64346;50.820;16.274;2023-09-18T11:54:14;13.82;;;7.55;;
36441;SDS011;64346;50.820;16.274;2023-09-18T11:56:42;11.63;;;7.10;;
36441;SDS011;64346;50.820;16.274;2023-09-18T11:59:10;12.63;;;7.90;;
36441;SDS011;64346;50.820;16.274;2023-09-18T12:01:37;12.05;;;7.88;;
36441;SDS011;64346;50.820;16.274;2023-09-18T12:04:05;13.30;;;8.05;;
36441;SDS011;64346;50.820;16.274;2023-09-18T12:06:33;14.05;;;8.05;;
36441;SDS011;64346;50.820;16.274;2023-09-18T12:09:08;11.88;;;7.47;;
36441;SDS011;64346;50.820;16.274;2023-09-18T12:11:35;14.63;;;8.95;;
36441;SDS011;64346;50.820;16.274;2023-09-18T12:14:03;11.68;;;7.88;;
36441;SDS011;64346;50.820;16.274;2023-09-18T12:16:30;12.45;;;8.25;;
36441;SDS011;64346;50.820;16.274;2023-09-18T12:19:04;17.17;;;10.18;;
36441;SDS011;64346;50.820;16.274;2023-09-18T12:21:32;14.32;;;8.30;;
36441;SDS011;64346;50.820;16.274;2023-09-18T12:23:59;13.57;;;7.97;;
36441;SDS011;64346;50.820;16.274;2023-09-18T12:26:27;11.98;;;8.20;;
36441;SDS011;64346;50.820;16.274;2023-09-18T12:28:59;14.88;;;7.75;;
36441;SDS011;64346;50.820;16.274;2023-09-18T12:31:27;12.43;;;8.43;;
36441;SDS011;64346;50.820;16.274;2023-09-18T12:33:56;15.60;;;8.77;;
36441;SDS011;64346;50.820;16.274;2023-09-18T12:36:26;14.70;;;8.80;;
36441;SDS011;64346;50.820;16.274;2023-09-18T12:38:59;14.23;;;9.88;;
36441;SDS011;64346;50.820;16.274;2023-09-18T12:41:27;15.40;;;8.88;;
36441;SDS011;64346;50.820;16.274;2023-09-18T12:43:57;14.73;;;8.90;;
36441;SDS011;64346;50.820;16.274;2023-09-18T12:46:25;17.05;;;9.30;;
36441;SDS011;64346;50.820;16.274;2023-09-18T12:48:52;12.85;;;8.15;;
36441;SDS011;64346;50.820;16.274;2023-09-18T12:51:29;16.55;;;9.35;;
36441;SDS011;64346;50.820;16.274;2023-09-18T12:53:59;14.65;;;9.38;;
36441;SDS011;64346;50.820;16.274;2023-09-18T12:56:27;18.92;;;9.27;;
36441;SDS011;64346;50.820;16.274;2023-09-18T12:58:57;13.90;;;8.63;;
36441;SDS011;64346;50.820;16.274;2023-09-18T13:01:45;13.85;;;8.25;;
36441;SDS011;64346;50.820;16.274;2023-09-18T13:04:15;13.50;;;8.52;;
36441;SDS011;64346;50.820;16.274;2023-09-18T13:06:43;15.43;;;8.75;;
36441;SDS011;64346;50.820;16.274;2023-09-18T13:09:18;14.70;;;7.80;;
36441;SDS011;64346;50.820;16.274;2023-09-18T13:11:56;13.23;;;8.00;;
36441;SDS011;64346;50.820;16.274;2023-09-18T13:14:26;11.52;;;7.93;;
36441;SDS011;64346;50.820;16.274;2023-09-18T13:16:59;16.38;;;8.48;;
36441;SDS011;64346;50.820;16.274;2023-09-18T13:19:33;13.25;;;8.65;;
36441;SDS011;64346;50.820;16.274;2023-09-18T13:22:03;12.95;;;8.13;;
36441;SDS011;64346;50.820;16.274;2023-09-18T13:24:30;14.60;;;8.55;;
36441;SDS011;64346;50.820;16.274;2023-09-18T13:26:58;16.98;;;8.35;;
36441;SDS011;64346;50.820;16.274;2023-09-18T13:29:27;13.82;;;8.48;;
36441;SDS011;64346;50.820;16.274;2023-09-18T13:31:55;18.75;;;12.32;;
36441;SDS011;64346;50.820;16.274;2023-09-18T13:34:23;17.70;;;8.48;;
36441;SDS011;64346;50.820;16.274;2023-09-18T13:36:51;13.57;;;8.18;;
36441;SDS011;64346;50.820;16.274;2023-09-18T13:39:18;16.40;;;8.38;;
36441;SDS011;64346;50.820;16.274;2023-09-18T13:41:48;11.63;;;7.50;;
36441;SDS011;64346;50.820;16.274;2023-09-18T13:44:15;13.50;;;8.82;;
36441;SDS011;64346;50.820;16.274;2023-09-18T13:46:48;13.48;;;8.48;;
36441;SDS011;64346;50.820;16.274;2023-09-18T13:49:15;13.25;;;7.80;;
36441;SDS011;64346;50.820;16.274;2023-09-18T13:51:43;15.05;;;8.07;;
36441;SDS011;64346;50.820;16.274;2023-09-18T13:54:10;18.73;;;9.45;;
36441;SDS011;64346;50.820;16.274;2023-09-18T13:56:40;12.95;;;7.80;;
36441;SDS011;64346;50.820;16.274;2023-09-18T13:59:07;13.90;;;8.18;;
36441;SDS011;64346;50.820;16.274;2023-09-18T14:01:37;12.27;;;7.57;;
36441;SDS011;64346;50.820;16.274;2023-09-18T14:04:06;16.73;;;8.77;;
36441;SDS011;64346;50.820;16.274;2023-09-18T14:06:38;11.50;;;7.88;;
36441;SDS011;64346;50.820;16.274;2023-09-18T14:09:05;16.15;;;9.50;;
36441;SDS011;64346;50.820;16.274;2023-09-18T14:11:33;11.32;;;7.57;;
36441;SDS011;64346;50.820;16.274;2023-09-18T14:14:00;14.43;;;7.95;;
36441;SDS011;64346;50.820;16.274;2023-09-18T14:16:30;12.35;;;7.78;;
36441;SDS011;64346;50.820;16.274;2023-09-18T14:19:00;13.80;;;7.50;;
36441;SDS011;64346;50.820;16.274;2023-09-18T14:21:27;16.92;;;7.82;;
36441;SDS011;64346;50.820;16.274;2023-09-18T14:23:54;13.70;;;8.18;;
36441;SDS011;64346;50.820;16.274;2023-09-18T14:26:22;14.00;;;8.05;;
36441;SDS011;64346;50.820;16.274;2023-09-18T14:28:51;12.55;;;8.10;;
36441;SDS011;64346;50.820;16.274;2023-09-18T14:31:19;12.63;;;7.50;;
36441;SDS011;64346;50.820;16.274;2023-09-18T14:33:46;12.60;;;6.60;;
36441;SDS011;64346;50.820;16.274;2023-09-18T14:36:14;10.98;;;6.78;;
36441;SDS011;64346;50.820;16.274;2023-09-18T14:38:43;14.05;;;7.78;;
36441;SDS011;64346;50.820;16.274;2023-09-18T14:41:11;12.95;;;7.53;;
36441;SDS011;64346;50.820;16.274;2023-09-18T14:43:40;11.38;;;6.63;;
36441;SDS011;64346;50.820;16.274;2023-09-18T14:46:08;13.18;;;7.00;;